Airfield :
LOGIN :

Register | Disclaimer

   EN    FR    IT 

 










Legend :    VFR   Marginal VFR   IFR   Intensive IFR   Very Intensive IFR
Visi :
Ceiling :
>= 8 km
>= 3000ft
5 to 8 km
1000 to 3000 ft
1500m to 5 km
500 to 1000 ft
800 to 1500m
200 to 500 ft
< 800m
< 200 ft
Symbols :   Thunderstorms  Fog  Heavy snow  Heavy precipitations  Wind > 20 kt
SIGMETs :     Misc.  Thunderstorms  Icing  Turbulence  Mountain Waves  Volcanic Ashes






- Airport Elevation : 53 ft
- IATA code : HAM


EDDH - Hamburg

CURRENT METAR :
  • 252050Z AUTO 24004KT CAVOK 08/07 Q1009 NOSIG

EXPIRED METARs :
  • 252020Z AUTO 24005KT CAVOK 08/08 Q1009 NOSIG
  • 251950Z AUTO 24004KT CAVOK 08/08 Q1009 NOSIG
  • 251920Z AUTO 24005KT CAVOK 09/08 Q1009 NOSIG
  • 251850Z AUTO 25004KT 9999 FEW030 09/09 Q1010 NOSIG

TAF TAF EDDH
Valid from the 25 at 18:00 until the 27 at 00:00 UTC


251700Z 2518/2624 22004KT CAVOK
BECMG 2603/2605 20011KT
PROB30
TEMPO 2605/2608 BKN009
TEMPO 2609/2616 21015G25KT
PROB30
TEMPO 2612/2621 RA
BECMG 2619/2621 BKN012
PROB40
TEMPO 2621/2624 BKN008



MET'MAP, your aeronautical weather chart ! - Copyright ORBIFLY December 2007 - Disclaimer

ORBIFLY MET'MAP TEAM :

Programming & Development : Alexandra Zaïnal
Original concept : Baudouin d'Aumeries
Technical & hardware support : Manuel Goepfert
Assistance : Marc-Olivier Méhu




SOURCES & CREDITS :

   NOAA